sensor_id;sensor_type;location;lat;lon;timestamp;P1;durP1;ratioP1;P2;durP2;ratioP2
75377;SDS011;63959;51.960;5.886;2023-03-11T00:14:26;6.63;;;2.13;;
75377;SDS011;63959;51.960;5.886;2023-03-11T00:16:57;10.45;;;2.10;;
75377;SDS011;63959;51.960;5.886;2023-03-11T00:19:31;6.90;;;1.80;;
75377;SDS011;63959;51.960;5.886;2023-03-11T00:22:19;8.07;;;1.80;;
75377;SDS011;63959;51.960;5.886;2023-03-11T00:24:50;9.40;;;1.67;;
75377;SDS011;63959;51.960;5.886;2023-03-11T00:27:37;10.43;;;2.53;;
75377;SDS011;63959;51.960;5.886;2023-03-11T00:30:21;7.47;;;1.42;;
75377;SDS011;63959;51.960;5.886;2023-03-11T00:36:19;5.40;;;1.52;;
75377;SDS011;63959;51.960;5.886;2023-03-11T00:39:03;7.25;;;1.60;;
75377;SDS011;63959;51.960;5.886;2023-03-11T00:41:40;6.90;;;1.60;;
75377;SDS011;63959;51.960;5.886;2023-03-11T00:47:52;5.55;;;1.38;;
75377;SDS011;63959;51.960;5.886;2023-03-11T00:51:09;4.63;;;1.60;;
75377;SDS011;63959;51.960;5.886;2023-03-11T00:53:53;5.25;;;1.40;;
75377;SDS011;63959;51.960;5.886;2023-03-11T00:56:51;9.35;;;1.70;;
75377;SDS011;63959;51.960;5.886;2023-03-11T00:59:34;7.50;;;1.70;;
75377;SDS011;63959;51.960;5.886;2023-03-11T01:03:35;6.95;;;1.83;;
75377;SDS011;63959;51.960;5.886;2023-03-11T01:08:52;11.10;;;1.98;;
75377;SDS011;63959;51.960;5.886;2023-03-11T01:11:40;8.85;;;1.80;;
75377;SDS011;63959;51.960;5.886;2023-03-11T01:14:55;8.80;;;1.73;;
75377;SDS011;63959;51.960;5.886;2023-03-11T01:20:38;4.75;;;1.42;;
75377;SDS011;63959;51.960;5.886;2023-03-11T01:23:20;5.13;;;1.33;;
75377;SDS011;63959;51.960;5.886;2023-03-11T01:26:03;3.20;;;1.08;;
75377;SDS011;63959;51.960;5.886;2023-03-11T01:28:41;4.22;;;1.10;;
75377;SDS011;63959;51.960;5.886;2023-03-11T01:33:55;5.50;;;1.15;;
75377;SDS011;63959;51.960;5.886;2023-03-11T01:36:41;4.60;;;1.60;;
75377;SDS011;63959;51.960;5.886;2023-03-11T01:39:13;4.75;;;1.40;;
75377;SDS011;63959;51.960;5.886;2023-03-11T01:41:45;4.70;;;1.30;;
75377;SDS011;63959;51.960;5.886;2023-03-11T01:44:17;3.70;;;1.23;;
75377;SDS011;63959;51.960;5.886;2023-03-11T01:49:33;7.10;;;1.20;;
75377;SDS011;63959;51.960;5.886;2023-03-11T01:52:06;4.18;;;1.40;;
75377;SDS011;63959;51.960;5.886;2023-03-11T01:57:19;6.15;;;1.70;;
75377;SDS011;63959;51.960;5.886;2023-03-11T01:59:49;7.93;;;1.70;;
75377;SDS011;63959;51.960;5.886;2023-03-11T02:02:29;7.70;;;1.65;;
75377;SDS011;63959;51.960;5.886;2023-03-11T02:05:02;6.22;;;2.38;;
75377;SDS011;63959;51.960;5.886;2023-03-11T02:07:31;7.20;;;1.83;;
75377;SDS011;63959;51.960;5.886;2023-03-11T02:10:01;7.50;;;1.65;;
75377;SDS011;63959;51.960;5.886;2023-03-11T02:12:38;4.07;;;1.08;;
75377;SDS011;63959;51.960;5.886;2023-03-11T02:15:20;6.38;;;2.25;;
75377;SDS011;63959;51.960;5.886;2023-03-11T02:17:55;4.20;;;1.55;;
75377;SDS011;63959;51.960;5.886;2023-03-11T02:20:28;4.57;;;1.40;;
75377;SDS011;63959;51.960;5.886;2023-03-11T02:23:08;4.45;;;1.50;;
75377;SDS011;63959;51.960;5.886;2023-03-11T02:25:40;4.60;;;1.30;;
75377;SDS011;63959;51.960;5.886;2023-03-11T02:28:19;5.50;;;1.30;;
75377;SDS011;63959;51.960;5.886;2023-03-11T02:30:49;9.35;;;1.88;;
75377;SDS011;63959;51.960;5.886;2023-03-11T02:33:18;4.60;;;1.52;;
75377;SDS011;63959;51.960;5.886;2023-03-11T02:35:47;8.75;;;1.90;;
75377;SDS011;63959;51.960;5.886;2023-03-11T02:38:20;8.50;;;1.73;;
75377;SDS011;63959;51.960;5.886;2023-03-11T02:40:53;5.18;;;1.40;;
75377;SDS011;63959;51.960;5.886;2023-03-11T02:43:30;4.35;;;1.60;;
75377;SDS011;63959;51.960;5.886;2023-03-11T02:46:02;2.70;;;1.30;;
75377;SDS011;63959;51.960;5.886;2023-03-11T02:48:32;6.57;;;1.73;;
75377;SDS011;63959;51.960;5.886;2023-03-11T02:51:05;4.75;;;1.50;;
75377;SDS011;63959;51.960;5.886;2023-03-11T02:53:35;7.20;;;1.65;;
75377;SDS011;63959;51.960;5.886;2023-03-11T02:56:07;4.53;;;1.50;;
75377;SDS011;63959;51.960;5.886;2023-03-11T02:58:38;9.25;;;1.90;;
75377;SDS011;63959;51.960;5.886;2023-03-11T03:01:09;4.88;;;2.10;;
75377;SDS011;63959;51.960;5.886;2023-03-11T03:03:40;5.28;;;1.63;;
75377;SDS011;63959;51.960;5.886;2023-03-11T03:06:10;16.55;;;1.90;;
75377;SDS011;63959;51.960;5.886;2023-03-11T03:08:39;4.70;;;1.23;;
75377;SDS011;63959;51.960;5.886;2023-03-11T03:11:08;5.38;;;1.50;;
75377;SDS011;63959;51.960;5.886;2023-03-11T03:13:41;4.68;;;1.27;;
75377;SDS011;63959;51.960;5.886;2023-03-11T03:16:10;6.70;;;1.90;;
75377;SDS011;63959;51.960;5.886;2023-03-11T03:18:41;4.75;;;1.60;;
75377;SDS011;63959;51.960;5.886;2023-03-11T03:21:10;4.70;;;1.17;;
75377;SDS011;63959;51.960;5.886;2023-03-11T03:23:41;6.25;;;2.20;;
75377;SDS011;63959;51.960;5.886;2023-03-11T03:26:11;4.57;;;1.73;;
75377;SDS011;63959;51.960;5.886;2023-03-11T03:28:46;5.03;;;1.48;;
75377;SDS011;63959;51.960;5.886;2023-03-11T03:31:15;4.93;;;1.58;;
75377;SDS011;63959;51.960;5.886;2023-03-11T03:33:44;4.07;;;1.30;;
75377;SDS011;63959;51.960;5.886;2023-03-11T03:36:13;4.45;;;1.38;;
75377;SDS011;63959;51.960;5.886;2023-03-11T03:38:53;6.22;;;1.60;;
75377;SDS011;63959;51.960;5.886;2023-03-11T03:41:25;3.35;;;1.35;;
75377;SDS011;63959;51.960;5.886;2023-03-11T03:43:59;6.45;;;1.52;;
75377;SDS011;63959;51.960;5.886;2023-03-11T03:46:31;3.30;;;1.25;;
75377;SDS011;63959;51.960;5.886;2023-03-11T03:49:02;4.22;;;1.42;;
75377;SDS011;63959;51.960;5.886;2023-03-11T03:51:32;7.65;;;1.70;;
75377;SDS011;63959;51.960;5.886;2023-03-11T03:54:07;7.13;;;1.40;;
75377;SDS011;63959;51.960;5.886;2023-03-11T03:56:36;4.03;;;1.00;;
75377;SDS011;63959;51.960;5.886;2023-03-11T03:59:08;5.28;;;1.58;;
75377;SDS011;63959;51.960;5.886;2023-03-11T04:01:41;6.93;;;1.42;;
75377;SDS011;63959;51.960;5.886;2023-03-11T04:04:10;10.48;;;2.05;;
75377;SDS011;63959;51.960;5.886;2023-03-11T04:06:39;8.60;;;1.70;;
75377;SDS011;63959;51.960;5.886;2023-03-11T04:09:10;6.85;;;1.77;;
75377;SDS011;63959;51.960;5.886;2023-03-11T04:11:39;6.53;;;1.55;;
75377;SDS011;63959;51.960;5.886;2023-03-11T04:14:13;3.45;;;1.15;;
75377;SDS011;63959;51.960;5.886;2023-03-11T04:16:49;6.55;;;1.65;;
75377;SDS011;63959;51.960;5.886;2023-03-11T04:19:18;4.05;;;1.27;;
75377;SDS011;63959;51.960;5.886;2023-03-11T04:21:46;3.92;;;1.30;;
75377;SDS011;63959;51.960;5.886;2023-03-11T04:24:17;2.95;;;1.00;;
75377;SDS011;63959;51.960;5.886;2023-03-11T04:26:47;3.15;;;1.10;;
75377;SDS011;63959;51.960;5.886;2023-03-11T04:29:19;6.57;;;1.20;;
75377;SDS011;63959;51.960;5.886;2023-03-11T04:31:51;6.72;;;1.23;;
75377;SDS011;63959;51.960;5.886;2023-03-11T04:34:20;3.75;;;1.20;;
75377;SDS011;63959;51.960;5.886;2023-03-11T04:36:50;8.48;;;1.50;;
75377;SDS011;63959;51.960;5.886;2023-03-11T04:39:21;5.18;;;1.10;;
75377;SDS011;63959;51.960;5.886;2023-03-11T04:41:53;4.60;;;1.20;;
75377;SDS011;63959;51.960;5.886;2023-03-11T04:44:26;6.55;;;1.48;;
75377;SDS011;63959;51.960;5.886;2023-03-11T04:46:55;5.90;;;1.30;;
75377;SDS011;63959;51.960;5.886;2023-03-11T04:49:24;8.32;;;1.55;;
75377;SDS011;63959;51.960;5.886;2023-03-11T04:51:53;4.03;;;1.13;;
75377;SDS011;63959;51.960;5.886;2023-03-11T04:54:23;4.85;;;1.45;;
75377;SDS011;63959;51.960;5.886;2023-03-11T04:56:52;6.35;;;1.65;;
75377;SDS011;63959;51.960;5.886;2023-03-11T04:59:22;3.75;;;1.25;;
75377;SDS011;63959;51.960;5.886;2023-03-11T05:01:54;3.30;;;1.17;;
75377;SDS011;63959;51.960;5.886;2023-03-11T05:04:22;3.78;;;1.30;;
75377;SDS011;63959;51.960;5.886;2023-03-11T05:06:51;4.45;;;1.20;;
75377;SDS011;63959;51.960;5.886;2023-03-11T05:09:24;3.25;;;1.20;;
75377;SDS011;63959;51.960;5.886;2023-03-11T05:11:53;4.20;;;1.02;;
75377;SDS011;63959;51.960;5.886;2023-03-11T05:14:22;2.25;;;1.02;;
75377;SDS011;63959;51.960;5.886;2023-03-11T05:16:54;5.47;;;1.45;;
75377;SDS011;63959;51.960;5.886;2023-03-11T05:19:23;3.45;;;1.30;;
75377;SDS011;63959;51.960;5.886;2023-03-11T05:22:04;4.00;;;1.30;;
75377;SDS011;63959;51.960;5.886;2023-03-11T05:24:33;4.80;;;1.40;;
75377;SDS011;63959;51.960;5.886;2023-03-11T05:27:03;3.55;;;1.17;;
75377;SDS011;63959;51.960;5.886;2023-03-11T05:29:33;4.65;;;1.20;;
75377;SDS011;63959;51.960;5.886;2023-03-11T05:32:06;7.63;;;1.52;;
75377;SDS011;63959;51.960;5.886;2023-03-11T05:34:36;3.33;;;1.25;;
75377;SDS011;63959;51.960;5.886;2023-03-11T05:37:09;4.05;;;1.10;;
75377;SDS011;63959;51.960;5.886;2023-03-11T05:39:38;5.80;;;1.38;;
75377;SDS011;63959;51.960;5.886;2023-03-11T05:42:07;5.28;;;1.58;;
75377;SDS011;63959;51.960;5.886;2023-03-11T05:44:37;3.38;;;1.33;;
75377;SDS011;63959;51.960;5.886;2023-03-11T05:47:09;2.45;;;1.10;;
75377;SDS011;63959;51.960;5.886;2023-03-11T05:49:39;4.85;;;1.30;;
75377;SDS011;63959;51.960;5.886;2023-03-11T05:52:07;3.60;;;1.40;;
75377;SDS011;63959;51.960;5.886;2023-03-11T05:54:38;4.95;;;1.50;;
75377;SDS011;63959;51.960;5.886;2023-03-11T05:57:07;3.35;;;1.27;;
75377;SDS011;63959;51.960;5.886;2023-03-11T05:59:36;6.85;;;2.13;;
75377;SDS011;63959;51.960;5.886;2023-03-11T06:02:09;7.25;;;1.60;;
75377;SDS011;63959;51.960;5.886;2023-03-11T06:04:38;4.32;;;1.25;;
75377;SDS011;63959;51.960;5.886;2023-03-11T06:07:08;4.72;;;1.58;;
75377;SDS011;63959;51.960;5.886;2023-03-11T06:09:39;3.72;;;1.50;;
75377;SDS011;63959;51.960;5.886;2023-03-11T06:12:12;5.30;;;1.25;;
75377;SDS011;63959;51.960;5.886;2023-03-11T06:15:00;5.68;;;1.52;;
75377;SDS011;63959;51.960;5.886;2023-03-11T06:17:33;5.55;;;1.50;;
75377;SDS011;63959;51.960;5.886;2023-03-11T06:20:03;3.17;;;1.38;;
75377;SDS011;63959;51.960;5.886;2023-03-11T06:22:33;3.80;;;1.10;;
75377;SDS011;63959;51.960;5.886;2023-03-11T06:25:02;4.40;;;1.48;;
75377;SDS011;63959;51.960;5.886;2023-03-11T06:27:32;3.88;;;0.93;;
75377;SDS011;63959;51.960;5.886;2023-03-11T06:30:01;6.43;;;1.70;;
75377;SDS011;63959;51.960;5.886;2023-03-11T06:32:39;4.20;;;1.60;;
75377;SDS011;63959;51.960;5.886;2023-03-11T06:35:08;4.55;;;1.65;;
75377;SDS011;63959;51.960;5.886;2023-03-11T06:37:38;3.47;;;1.40;;
75377;SDS011;63959;51.960;5.886;2023-03-11T06:40:10;8.02;;;2.40;;
75377;SDS011;63959;51.960;5.886;2023-03-11T06:42:40;6.28;;;1.90;;
75377;SDS011;63959;51.960;5.886;2023-03-11T06:45:10;5.00;;;1.90;;
75377;SDS011;63959;51.960;5.886;2023-03-11T06:47:46;7.95;;;1.65;;
75377;SDS011;63959;51.960;5.886;2023-03-11T06:52:43;4.47;;;1.58;;
75377;SDS011;63959;51.960;5.886;2023-03-11T06:55:12;3.78;;;1.58;;
75377;SDS011;63959;51.960;5.886;2023-03-11T06:57:41;5.03;;;1.58;;
75377;SDS011;63959;51.960;5.886;2023-03-11T07:00:11;5.28;;;1.70;;
75377;SDS011;63959;51.960;5.886;2023-03-11T07:02:48;3.83;;;1.55;;
75377;SDS011;63959;51.960;5.886;2023-03-11T07:05:17;5.05;;;1.58;;
75377;SDS011;63959;51.960;5.886;2023-03-11T07:07:47;5.47;;;1.45;;
75377;SDS011;63959;51.960;5.886;2023-03-11T07:10:16;4.72;;;1.70;;
75377;SDS011;63959;51.960;5.886;2023-03-11T07:12:45;4.80;;;1.50;;
75377;SDS011;63959;51.960;5.886;2023-03-11T07:15:14;4.95;;;1.50;;
75377;SDS011;63959;51.960;5.886;2023-03-11T07:17:43;4.85;;;1.27;;
75377;SDS011;63959;51.960;5.886;2023-03-11T07:20:14;4.78;;;1.50;;
75377;SDS011;63959;51.960;5.886;2023-03-11T07:22:43;5.28;;;1.73;;
75377;SDS011;63959;51.960;5.886;2023-03-11T07:25:12;6.07;;;1.60;;
75377;SDS011;63959;51.960;5.886;2023-03-11T07:27:40;5.82;;;1.90;;
75377;SDS011;63959;51.960;5.886;2023-03-11T07:30:09;7.18;;;2.08;;
75377;SDS011;63959;51.960;5.886;2023-03-11T07:32:38;5.43;;;1.73;;
75377;SDS011;63959;51.960;5.886;2023-03-11T07:35:08;8.13;;;1.90;;
75377;SDS011;63959;51.960;5.886;2023-03-11T07:37:40;7.85;;;1.95;;
75377;SDS011;63959;51.960;5.886;2023-03-11T07:40:12;7.53;;;2.03;;
75377;SDS011;63959;51.960;5.886;2023-03-11T07:42:41;5.20;;;1.63;;
75377;SDS011;63959;51.960;5.886;2023-03-11T07:45:10;7.57;;;2.20;;
75377;SDS011;63959;51.960;5.886;2023-03-11T07:47:42;6.82;;;1.75;;
75377;SDS011;63959;51.960;5.886;2023-03-11T07:50:11;5.35;;;1.52;;
75377;SDS011;63959;51.960;5.886;2023-03-11T07:52:44;6.35;;;1.73;;
75377;SDS011;63959;51.960;5.886;2023-03-11T07:55:14;4.93;;;1.45;;
75377;SDS011;63959;51.960;5.886;2023-03-11T07:57:45;5.13;;;1.50;;
75377;SDS011;63959;51.960;5.886;2023-03-11T08:00:16;3.50;;;1.52;;
75377;SDS011;63959;51.960;5.886;2023-03-11T08:02:45;6.63;;;1.88;;
75377;SDS011;63959;51.960;5.886;2023-03-11T08:05:14;5.13;;;1.67;;
75377;SDS011;63959;51.960;5.886;2023-03-11T08:07:48;4.78;;;1.55;;
75377;SDS011;63959;51.960;5.886;2023-03-11T08:10:16;5.05;;;1.55;;
75377;SDS011;63959;51.960;5.886;2023-03-11T08:12:48;6.07;;;1.75;;
75377;SDS011;63959;51.960;5.886;2023-03-11T08:15:30;5.03;;;1.80;;
75377;SDS011;63959;51.960;5.886;2023-03-11T08:18:00;5.30;;;1.40;;
75377;SDS011;63959;51.960;5.886;2023-03-11T08:20:29;5.82;;;1.55;;
75377;SDS011;63959;51.960;5.886;2023-03-11T08:23:01;3.80;;;1.50;;
75377;SDS011;63959;51.960;5.886;2023-03-11T08:25:30;4.88;;;1.55;;
75377;SDS011;63959;51.960;5.886;2023-03-11T08:27:59;3.25;;;1.30;;
75377;SDS011;63959;51.960;5.886;2023-03-11T08:30:30;5.55;;;1.58;;
75377;SDS011;63959;51.960;5.886;2023-03-11T08:32:58;4.60;;;1.40;;
75377;SDS011;63959;51.960;5.886;2023-03-11T08:35:27;3.78;;;1.20;;
75377;SDS011;63959;51.960;5.886;2023-03-11T08:37:57;3.83;;;1.50;;
75377;SDS011;63959;51.960;5.886;2023-03-11T08:40:28;2.90;;;1.15;;
75377;SDS011;63959;51.960;5.886;2023-03-11T08:42:57;3.08;;;1.08;;
75377;SDS011;63959;51.960;5.886;2023-03-11T08:45:26;6.93;;;1.40;;
75377;SDS011;63959;51.960;5.886;2023-03-11T08:47:55;4.97;;;1.50;;
75377;SDS011;63959;51.960;5.886;2023-03-11T08:50:26;3.75;;;1.35;;
75377;SDS011;63959;51.960;5.886;2023-03-11T08:52:57;6.47;;;1.58;;
75377;SDS011;63959;51.960;5.886;2023-03-11T08:55:30;5.93;;;1.30;;
75377;SDS011;63959;51.960;5.886;2023-03-11T08:57:59;6.63;;;1.23;;
75377;SDS011;63959;51.960;5.886;2023-03-11T09:00:30;7.32;;;1.38;;
75377;SDS011;63959;51.960;5.886;2023-03-11T09:02:59;3.78;;;1.30;;
75377;SDS011;63959;51.960;5.886;2023-03-11T09:05:28;3.83;;;1.50;;
75377;SDS011;63959;51.960;5.886;2023-03-11T09:07:57;5.05;;;1.20;;
75377;SDS011;63959;51.960;5.886;2023-03-11T09:10:30;5.72;;;1.20;;
75377;SDS011;63959;51.960;5.886;2023-03-11T09:12:59;2.78;;;1.20;;
75377;SDS011;63959;51.960;5.886;2023-03-11T09:15:44;3.08;;;1.13;;
75377;SDS011;63959;51.960;5.886;2023-03-11T09:18:18;3.90;;;1.10;;
75377;SDS011;63959;51.960;5.886;2023-03-11T09:20:47;3.35;;;1.02;;
75377;SDS011;63959;51.960;5.886;2023-03-11T09:23:30;5.15;;;1.38;;
75377;SDS011;63959;51.960;5.886;2023-03-11T09:26:02;4.65;;;1.10;;
75377;SDS011;63959;51.960;5.886;2023-03-11T09:28:35;4.45;;;1.70;;
75377;SDS011;63959;51.960;5.886;2023-03-11T09:31:04;2.83;;;0.80;;
75377;SDS011;63959;51.960;5.886;2023-03-11T09:33:37;2.85;;;1.10;;
75377;SDS011;63959;51.960;5.886;2023-03-11T09:36:10;2.55;;;1.00;;
75377;SDS011;63959;51.960;5.886;2023-03-11T09:38:40;2.75;;;0.70;;
75377;SDS011;63959;51.960;5.886;2023-03-11T09:41:13;4.13;;;1.13;;
75377;SDS011;63959;51.960;5.886;2023-03-11T09:43:51;4.03;;;1.17;;
75377;SDS011;63959;51.960;5.886;2023-03-11T09:49:09;3.80;;;1.00;;
75377;SDS011;63959;51.960;5.886;2023-03-11T09:51:46;1.23;;;0.73;;
75377;SDS011;63959;51.960;5.886;2023-03-11T09:54:17;3.15;;;0.98;;
75377;SDS011;63959;51.960;5.886;2023-03-11T09:56:50;2.75;;;0.70;;
75377;SDS011;63959;51.960;5.886;2023-03-11T09:59:21;3.15;;;1.00;;
75377;SDS011;63959;51.960;5.886;2023-03-11T10:01:53;4.85;;;1.08;;
75377;SDS011;63959;51.960;5.886;2023-03-11T10:04:25;3.95;;;0.98;;
75377;SDS011;63959;51.960;5.886;2023-03-11T10:06:54;3.67;;;1.20;;
75377;SDS011;63959;51.960;5.886;2023-03-11T10:09:25;2.33;;;0.82;;
75377;SDS011;63959;51.960;5.886;2023-03-11T10:12:02;2.80;;;0.90;;
75377;SDS011;63959;51.960;5.886;2023-03-11T10:14:41;5.07;;;1.08;;
75377;SDS011;63959;51.960;5.886;2023-03-11T10:17:14;4.22;;;1.00;;
75377;SDS011;63959;51.960;5.886;2023-03-11T10:22:19;3.40;;;0.90;;
75377;SDS011;63959;51.960;5.886;2023-03-11T10:25:06;4.10;;;0.80;;
75377;SDS011;63959;51.960;5.886;2023-03-11T10:27:42;3.75;;;0.80;;
75377;SDS011;63959;51.960;5.886;2023-03-11T10:30:14;4.15;;;1.20;;
75377;SDS011;63959;51.960;5.886;2023-03-11T10:32:47;4.32;;;0.90;;
75377;SDS011;63959;51.960;5.886;2023-03-11T10:35:19;3.85;;;0.85;;
75377;SDS011;63959;51.960;5.886;2023-03-11T10:37:50;2.78;;;0.90;;
75377;SDS011;63959;51.960;5.886;2023-03-11T10:40:49;5.85;;;1.15;;
75377;SDS011;63959;51.960;5.886;2023-03-11T10:43:23;4.15;;;1.20;;
75377;SDS011;63959;51.960;5.886;2023-03-11T10:45:53;4.75;;;1.05;;
75377;SDS011;63959;51.960;5.886;2023-03-11T10:48:25;3.20;;;0.90;;
75377;SDS011;63959;51.960;5.886;2023-03-11T10:50:56;3.05;;;0.90;;
75377;SDS011;63959;51.960;5.886;2023-03-11T10:53:25;2.47;;;0.70;;
75377;SDS011;63959;51.960;5.886;2023-03-11T10:55:55;2.53;;;0.80;;
75377;SDS011;63959;51.960;5.886;2023-03-11T10:58:27;2.60;;;0.80;;
75377;SDS011;63959;51.960;5.886;2023-03-11T11:01:01;3.30;;;0.93;;
75377;SDS011;63959;51.960;5.886;2023-03-11T11:03:30;5.82;;;0.82;;
75377;SDS011;63959;51.960;5.886;2023-03-11T11:06:01;8.32;;;1.50;;
75377;SDS011;63959;51.960;5.886;2023-03-11T11:08:31;4.95;;;0.90;;
75377;SDS011;63959;51.960;5.886;2023-03-11T11:11:02;2.22;;;1.02;;
75377;SDS011;63959;51.960;5.886;2023-03-11T11:13:34;3.10;;;0.63;;
75377;SDS011;63959;51.960;5.886;2023-03-11T11:16:04;4.00;;;0.80;;
75377;SDS011;63959;51.960;5.886;2023-03-11T11:18:33;3.80;;;0.93;;
75377;SDS011;63959;51.960;5.886;2023-03-11T11:21:04;3.45;;;0.90;;
75377;SDS011;63959;51.960;5.886;2023-03-11T11:23:40;7.03;;;1.00;;
75377;SDS011;63959;51.960;5.886;2023-03-11T11:26:16;5.05;;;0.90;;
75377;SDS011;63959;51.960;5.886;2023-03-11T11:28:51;3.75;;;0.60;;
75377;SDS011;63959;51.960;5.886;2023-03-11T11:31:35;7.50;;;0.93;;
75377;SDS011;63959;51.960;5.886;2023-03-11T11:34:21;5.60;;;1.40;;
75377;SDS011;63959;51.960;5.886;2023-03-11T11:36:53;1.80;;;0.70;;
75377;SDS011;63959;51.960;5.886;2023-03-11T11:39:26;2.28;;;0.70;;
75377;SDS011;63959;51.960;5.886;2023-03-11T11:41:56;4.65;;;0.80;;
75377;SDS011;63959;51.960;5.886;2023-03-11T11:44:28;3.03;;;0.75;;
75377;SDS011;63959;51.960;5.886;2023-03-11T11:46:59;3.00;;;1.00;;
75377;SDS011;63959;51.960;5.886;2023-03-11T11:49:31;3.25;;;0.80;;
75377;SDS011;63959;51.960;5.886;2023-03-11T11:52:02;3.00;;;0.90;;
75377;SDS011;63959;51.960;5.886;2023-03-11T11:54:34;3.10;;;1.00;;
75377;SDS011;63959;51.960;5.886;2023-03-11T11:57:10;4.97;;;1.00;;
75377;SDS011;63959;51.960;5.886;2023-03-11T11:59:53;3.08;;;0.82;;
75377;SDS011;63959;51.960;5.886;2023-03-11T12:04:52;4.70;;;1.10;;
75377;SDS011;63959;51.960;5.886;2023-03-11T12:07:32;3.67;;;1.00;;
75377;SDS011;63959;51.960;5.886;2023-03-11T12:10:15;5.47;;;1.20;;
75377;SDS011;63959;51.960;5.886;2023-03-11T12:13:20;5.15;;;1.05;;
75377;SDS011;63959;51.960;5.886;2023-03-11T12:16:02;2.97;;;0.90;;
75377;SDS011;63959;51.960;5.886;2023-03-11T12:18:50;2.90;;;0.88;;
75377;SDS011;63959;51.960;5.886;2023-03-11T12:24:50;1.40;;;0.70;;
75377;SDS011;63959;51.960;5.886;2023-03-11T12:27:48;3.05;;;0.70;;
75377;SDS011;63959;51.960;5.886;2023-03-11T12:30:45;2.78;;;0.90;;
75377;SDS011;63959;51.960;5.886;2023-03-11T12:46:21;3.00;;;0.80;;
75377;SDS011;63959;51.960;5.886;2023-03-11T12:49:42;1.80;;;0.60;;
75377;SDS011;63959;51.960;5.886;2023-03-11T12:55:37;2.03;;;0.70;;
75377;SDS011;63959;51.960;5.886;2023-03-11T13:58:50;3.33;;;0.90;;
75377;SDS011;63959;51.960;5.886;2023-03-11T14:01:40;3.72;;;1.00;;
75377;SDS011;63959;51.960;5.886;2023-03-11T14:05:04;2.85;;;0.68;;
75377;SDS011;63959;51.960;5.886;2023-03-11T14:07:58;2.85;;;0.98;;
75377;SDS011;63959;51.960;5.886;2023-03-11T14:10:57;5.38;;;1.00;;
75377;SDS011;63959;51.960;5.886;2023-03-11T14:26:47;4.55;;;0.98;;
75377;SDS011;63959;51.960;5.886;2023-03-11T14:31:22;3.08;;;1.00;;
75377;SDS011;63959;51.960;5.886;2023-03-11T14:32:59;5.20;;;1.20;;
75377;SDS011;63959;51.960;5.886;2023-03-11T14:35:30;3.60;;;1.10;;
75377;SDS011;63959;51.960;5.886;2023-03-11T14:37:59;3.70;;;1.20;;
75377;SDS011;63959;51.960;5.886;2023-03-11T14:40:29;6.28;;;2.13;;
75377;SDS011;63959;51.960;5.886;2023-03-11T14:43:02;3.92;;;1.30;;
75377;SDS011;63959;51.960;5.886;2023-03-11T14:45:32;4.20;;;1.02;;
75377;SDS011;63959;51.960;5.886;2023-03-11T14:48:03;4.50;;;1.23;;
75377;SDS011;63959;51.960;5.886;2023-03-11T14:50:33;3.25;;;1.25;;
75377;SDS011;63959;51.960;5.886;2023-03-11T14:53:04;3.25;;;1.05;;
75377;SDS011;63959;51.960;5.886;2023-03-11T14:55:34;2.38;;;0.90;;
75377;SDS011;63959;51.960;5.886;2023-03-11T14:58:09;2.67;;;0.90;;
75377;SDS011;63959;51.960;5.886;2023-03-11T15:00:41;3.60;;;1.10;;
75377;SDS011;63959;51.960;5.886;2023-03-11T15:03:13;4.30;;;1.05;;
75377;SDS011;63959;51.960;5.886;2023-03-11T15:05:47;3.88;;;0.90;;
75377;SDS011;63959;51.960;5.886;2023-03-11T15:08:20;4.97;;;1.23;;
75377;SDS011;63959;51.960;5.886;2023-03-11T15:11:16;4.38;;;1.30;;
75377;SDS011;63959;51.960;5.886;2023-03-11T15:13:49;2.08;;;0.80;;
75377;SDS011;63959;51.960;5.886;2023-03-11T15:16:38;3.28;;;1.15;;
75377;SDS011;63959;51.960;5.886;2023-03-11T15:19:20;4.07;;;1.25;;
75377;SDS011;63959;51.960;5.886;2023-03-11T15:21:49;3.13;;;1.00;;
75377;SDS011;63959;51.960;5.886;2023-03-11T15:24:20;5.10;;;1.20;;
75377;SDS011;63959;51.960;5.886;2023-03-11T15:26:55;2.20;;;0.95;;
75377;SDS011;63959;51.960;5.886;2023-03-11T15:29:27;1.95;;;0.70;;
75377;SDS011;63959;51.960;5.886;2023-03-11T15:34:44;1.98;;;0.80;;
75377;SDS011;63959;51.960;5.886;2023-03-11T15:37:17;4.70;;;1.02;;
75377;SDS011;63959;51.960;5.886;2023-03-11T15:39:48;4.78;;;1.20;;
75377;SDS011;63959;51.960;5.886;2023-03-11T15:42:18;3.50;;;1.20;;
75377;SDS011;63959;51.960;5.886;2023-03-11T15:47:35;2.70;;;1.10;;
75377;SDS011;63959;51.960;5.886;2023-03-11T15:50:18;2.75;;;0.95;;
75377;SDS011;63959;51.960;5.886;2023-03-11T15:52:49;3.63;;;0.95;;
75377;SDS011;63959;51.960;5.886;2023-03-11T15:55:18;3.30;;;1.00;;
75377;SDS011;63959;51.960;5.886;2023-03-11T15:57:55;3.72;;;1.00;;
75377;SDS011;63959;51.960;5.886;2023-03-11T16:00:26;2.53;;;0.70;;
75377;SDS011;63959;51.960;5.886;2023-03-11T16:02:57;3.72;;;1.10;;
75377;SDS011;63959;51.960;5.886;2023-03-11T16:05:26;2.45;;;0.73;;
75377;SDS011;63959;51.960;5.886;2023-03-11T16:07:57;3.17;;;0.95;;
75377;SDS011;63959;51.960;5.886;2023-03-11T16:10:26;2.53;;;0.90;;
75377;SDS011;63959;51.960;5.886;2023-03-11T16:12:56;2.88;;;0.98;;
75377;SDS011;63959;51.960;5.886;2023-03-11T16:15:27;2.92;;;0.98;;
75377;SDS011;63959;51.960;5.886;2023-03-11T16:18:00;2.97;;;0.90;;
75377;SDS011;63959;51.960;5.886;2023-03-11T16:20:30;2.03;;;0.70;;
75377;SDS011;63959;51.960;5.886;2023-03-11T16:23:00;3.25;;;0.90;;
75377;SDS011;63959;51.960;5.886;2023-03-11T16:25:29;3.63;;;0.80;;
75377;SDS011;63959;51.960;5.886;2023-03-11T16:28:01;3.17;;;1.20;;
75377;SDS011;63959;51.960;5.886;2023-03-11T16:30:35;6.70;;;1.10;;
75377;SDS011;63959;51.960;5.886;2023-03-11T16:33:06;2.95;;;1.00;;
75377;SDS011;63959;51.960;5.886;2023-03-11T16:35:35;3.33;;;0.98;;
75377;SDS011;63959;51.960;5.886;2023-03-11T16:38:07;3.83;;;0.90;;
75377;SDS011;63959;51.960;5.886;2023-03-11T16:40:39;3.45;;;1.00;;
75377;SDS011;63959;51.960;5.886;2023-03-11T16:43:09;1.75;;;1.02;;
75377;SDS011;63959;51.960;5.886;2023-03-11T16:45:39;2.80;;;0.75;;
75377;SDS011;63959;51.960;5.886;2023-03-11T16:48:16;4.32;;;0.90;;
75377;SDS011;63959;51.960;5.886;2023-03-11T16:50:52;4.72;;;0.90;;
75377;SDS011;63959;51.960;5.886;2023-03-11T16:53:24;2.40;;;0.88;;
75377;SDS011;63959;51.960;5.886;2023-03-11T16:55:53;4.35;;;1.00;;
75377;SDS011;63959;51.960;5.886;2023-03-11T16:58:22;2.50;;;0.82;;
75377;SDS011;63959;51.960;5.886;2023-03-11T17:00:51;4.88;;;1.27;;
75377;SDS011;63959;51.960;5.886;2023-03-11T17:03:23;4.50;;;0.90;;
75377;SDS011;63959;51.960;5.886;2023-03-11T17:05:54;2.65;;;1.00;;
75377;SDS011;63959;51.960;5.886;2023-03-11T17:08:29;4.78;;;1.10;;
75377;SDS011;63959;51.960;5.886;2023-03-11T17:10:58;4.22;;;1.02;;
75377;SDS011;63959;51.960;5.886;2023-03-11T17:13:30;5.00;;;1.00;;
75377;SDS011;63959;51.960;5.886;2023-03-11T17:15:59;2.88;;;0.88;;
75377;SDS011;63959;51.960;5.886;2023-03-11T17:18:31;4.55;;;0.95;;
75377;SDS011;63959;51.960;5.886;2023-03-11T17:21:03;1.92;;;0.70;;
75377;SDS011;63959;51.960;5.886;2023-03-11T17:23:32;4.20;;;1.10;;
75377;SDS011;63959;51.960;5.886;2023-03-11T17:26:01;3.25;;;1.27;;
75377;SDS011;63959;51.960;5.886;2023-03-11T17:28:32;4.72;;;0.93;;
75377;SDS011;63959;51.960;5.886;2023-03-11T17:31:01;3.90;;;0.98;;
75377;SDS011;63959;51.960;5.886;2023-03-11T17:33:34;2.45;;;0.93;;
75377;SDS011;63959;51.960;5.886;2023-03-11T17:36:04;5.03;;;1.13;;
75377;SDS011;63959;51.960;5.886;2023-03-11T17:38:33;4.50;;;1.27;;
75377;SDS011;63959;51.960;5.886;2023-03-11T17:41:06;3.35;;;1.13;;
75377;SDS011;63959;51.960;5.886;2023-03-11T17:43:35;3.88;;;1.10;;
75377;SDS011;63959;51.960;5.886;2023-03-11T17:46:05;3.22;;;1.20;;
75377;SDS011;63959;51.960;5.886;2023-03-11T17:48:38;3.30;;;1.05;;
75377;SDS011;63959;51.960;5.886;2023-03-11T17:51:10;6.30;;;1.40;;